Minkler, California
Current Conditions -  °F | °C
As of 10:53 AM on Friday 24 Oct 2014 (Local Time) from KFAT Reporting Station
Clear Clear  
Wind Chill: 70°   Ceiling: Unl
Heat Index: 70°   Visibility: 8mi
Dew Point: 49°   Wind: 5mph
Humidity: 47%   Direction: 150°SSE
Pressure: 30"   Gusts: NA
Location:  36.8137°N, 119.374°W
Report Text: KFAT 241753Z 15004KT 8SM CLR 21/09 A3000 RMK AO2 SLP156 MTNS OBSC HZ DSNT N-E-S T02110094 10211 20122 50001
Loading
Personal Weather Stations






























Interactive Weather Map
Tropical Storm Tracking
New forecast layout! Learn more

10-Day Weather Forecast

Advertisements
Track Severe Weather on mobile